Time;durP1;ratioP1;P1;durP2;ratioP2;P2;SDS_P1;SDS_P2;PMS_P1;PMS_P2;Temp;Humidity;BMP_temperature;BMP_pressure;BME280_temperature;BME280_humidity;BME280_pressure;Samples;Min_cycle;Max_cycle;Signal;HPM_P1;HPM_P2
2021/07/22 00:00:53;;;;;;;7.97;7.13;;;26.60;52.50;;;;;;5105234;28;20205;-65
2021/07/22 00:03:25;;;;;;;7.33;6.63;;;26.60;52.50;;;;;;5102591;28;20216;-65
2021/07/22 00:06:02;;;;;;;7.57;6.87;;;26.60;52.40;;;;;;5103625;28;20196;-65
2021/07/22 00:08:32;;;;;;;7.17;6.47;;;26.60;52.50;;;;;;5110032;28;20208;-65
2021/07/22 00:11:06;;;;;;;7.40;6.70;;;26.50;52.40;;;;;;5103250;28;20213;-64
2021/07/22 00:13:44;;;;;;;7.83;7.03;;;26.50;52.40;;;;;;5109363;28;20227;-65
2021/07/22 00:16:17;;;;;;;7.70;7.00;;;26.60;52.50;;;;;;5100219;28;20954;-65
2021/07/22 00:18:48;;;;;;;8.07;6.77;;;26.50;52.50;;;;;;5099063;28;20645;-65
2021/07/22 00:21:17;;;;;;;7.47;6.73;;;26.50;52.40;;;;;;5104527;28;20201;-65
2021/07/22 00:23:48;;;;;;;8.57;6.57;;;26.60;52.50;;;;;;5109482;28;20224;-64
2021/07/22 00:26:23;;;;;;;7.00;6.37;;;26.50;52.50;;;;;;5103766;28;20196;-64
2021/07/22 00:28:53;;;;;;;8.73;7.07;;;26.50;52.50;;;;;;5094663;28;20219;-65
2021/07/22 00:31:25;;;;;;;7.57;6.77;;;26.50;52.50;;;;;;5101471;28;20212;-65
2021/07/22 00:33:56;;;;;;;7.73;7.03;;;26.50;52.50;;;;;;5098684;28;20287;-65
2021/07/22 00:36:28;;;;;;;7.60;7.00;;;26.50;52.50;;;;;;5103597;28;20196;-64
2021/07/22 00:38:59;;;;;;;8.03;7.23;;;26.50;52.50;;;;;;5107363;28;20204;-65
2021/07/22 00:41:27;;;;;;;7.97;6.90;;;26.50;52.50;;;;;;5099925;28;20207;-65
2021/07/22 00:44:03;;;;;;;7.40;6.67;;;26.40;52.50;;;;;;5108429;28;20203;-65
2021/07/22 00:46:33;;;;;;;7.63;6.83;;;26.50;52.50;;;;;;5101043;28;20246;-65
2021/07/22 00:49:20;;;;;;;7.50;6.67;;;26.50;52.50;;;;;;5105038;28;20196;-65
2021/07/22 00:51:53;;;;;;;7.00;6.30;;;26.40;52.50;;;;;;5104585;28;20216;-65
2021/07/22 00:54:22;;;;;;;7.20;6.50;;;26.50;52.50;;;;;;5105957;28;20216;-65
2021/07/22 00:56:52;;;;;;;7.00;6.40;;;26.40;52.50;;;;;;5101151;28;20193;-65
2021/07/22 00:59:25;;;;;;;7.13;6.43;;;26.40;52.50;;;;;;5105233;28;20950;-65
2021/07/22 01:02:05;;;;;;;7.20;6.50;;;26.40;52.40;;;;;;5105276;28;20233;-65
2021/07/22 01:04:35;;;;;;;7.87;7.17;;;26.40;52.50;;;;;;5106281;28;20204;-65
2021/07/22 01:07:06;;;;;;;7.23;6.53;;;26.40;52.40;;;;;;5108223;28;20699;-65
2021/07/22 01:09:37;;;;;;;7.63;6.93;;;26.40;52.40;;;;;;5104536;28;20210;-65
2021/07/22 01:12:07;;;;;;;7.07;6.47;;;26.40;52.50;;;;;;5105168;28;20206;-65
2021/07/22 01:14:35;;;;;;;7.90;7.10;;;26.40;52.40;;;;;;5099273;28;20580;-65
2021/07/22 01:17:30;;;;;;;7.17;6.53;;;26.40;52.40;;;;;;5105970;28;20205;-65
2021/07/22 01:20:08;;;;;;;7.60;6.80;;;26.40;52.50;;;;;;5100856;28;20656;-65
2021/07/22 01:22:37;;;;;;;7.10;6.40;;;26.40;52.40;;;;;;5103218;28;20235;-65
2021/07/22 01:25:15;;;;;;;7.43;6.63;;;26.40;52.40;;;;;;5104528;28;20668;-65
2021/07/22 01:27:49;;;;;;;6.60;6.00;;;26.30;52.40;;;;;;5104879;28;20208;-65
2021/07/22 01:30:38;;;;;;;7.53;6.63;;;26.30;53.00;;;;;;5101614;28;20196;-65
2021/07/22 01:33:12;;;;;;;8.17;7.37;;;26.30;52.30;;;;;;5100307;28;20675;-65
2021/07/22 01:35:43;;;;;;;7.43;6.73;;;26.30;52.30;;;;;;5105576;28;20223;-65
2021/07/22 01:38:14;;;;;;;7.43;6.53;;;26.30;52.20;;;;;;5094807;28;20209;-64
2021/07/22 01:40:42;;;;;;;7.33;6.63;;;26.30;52.20;;;;;;5104346;28;20194;-65
2021/07/22 01:43:12;;;;;;;6.40;5.80;;;26.30;52.20;;;;;;5102305;28;20189;-65
2021/07/22 01:45:45;;;;;;;8.13;6.80;;;26.30;52.20;;;;;;5093634;28;20203;-65
2021/07/22 01:48:14;;;;;;;7.40;6.70;;;26.30;52.20;;;;;;5099350;28;20212;-64
2021/07/22 01:50:44;;;;;;;7.30;6.70;;;26.30;52.20;;;;;;5108102;28;20196;-64
2021/07/22 01:53:14;;;;;;;7.40;6.67;;;26.30;52.20;;;;;;5100579;28;20197;-64
2021/07/22 01:55:42;;;;;;;7.20;6.57;;;26.30;52.30;;;;;;5091931;28;20215;-65
2021/07/22 01:58:11;;;;;;;7.67;6.87;;;26.30;52.20;;;;;;5098573;28;20642;-65
2021/07/22 02:00:42;;;;;;;7.80;7.00;;;26.30;52.30;;;;;;5096148;28;20188;-64
2021/07/22 02:03:13;;;;;;;7.90;7.10;;;26.30;52.30;;;;;;5102561;28;20196;-65
2021/07/22 02:05:44;;;;;;;7.80;7.00;;;26.30;52.40;;;;;;5108289;28;20537;-65
2021/07/22 02:08:15;;;;;;;7.57;6.80;;;26.30;52.40;;;;;;5103032;28;20218;-65
2021/07/22 02:10:45;;;;;;;7.27;6.57;;;26.30;52.40;;;;;;5105317;28;20258;-64
2021/07/22 02:13:15;;;;;;;11.33;6.77;;;26.20;52.90;;;;;;5103706;28;20200;-64
2021/07/22 02:15:45;;;;;;;7.30;6.60;;;26.20;52.30;;;;;;5099230;28;20223;-64
2021/07/22 02:18:20;;;;;;;7.30;6.60;;;26.30;52.30;;;;;;5100884;28;20543;-65
2021/07/22 02:21:06;;;;;;;9.07;6.93;;;26.20;52.30;;;;;;5102308;28;20810;-65
2021/07/22 02:23:38;;;;;;;7.20;6.50;;;26.20;52.30;;;;;;5100877;28;20280;-65
2021/07/22 02:26:10;;;;;;;7.73;6.93;;;26.20;52.30;;;;;;5104786;28;20198;-65
2021/07/22 02:28:41;;;;;;;7.40;6.70;;;26.20;52.30;;;;;;5104507;28;20693;-65
2021/07/22 02:31:13;;;;;;;7.63;6.83;;;26.20;52.20;;;;;;5099659;28;20197;-65
2021/07/22 02:33:45;;;;;;;7.63;6.93;;;26.20;52.90;;;;;;5104639;28;20292;-65
2021/07/22 02:36:15;;;;;;;8.67;6.67;;;26.20;52.20;;;;;;5103222;28;20212;-65
2021/07/22 02:38:46;;;;;;;7.40;6.80;;;26.20;52.20;;;;;;5107475;28;20195;-65
2021/07/22 02:41:23;;;;;;;7.27;6.50;;;26.20;52.30;;;;;;5104117;28;20201;-65
2021/07/22 02:43:52;;;;;;;8.37;7.57;;;26.20;52.30;;;;;;5088891;28;20224;-64
2021/07/22 02:46:24;;;;;;;7.47;6.77;;;26.20;52.90;;;;;;5103646;28;20222;-64
2021/07/22 02:48:57;;;;;;;8.03;7.30;;;26.10;52.20;;;;;;5093937;28;20197;-64
2021/07/22 02:51:27;;;;;;;7.00;6.30;;;26.10;52.20;;;;;;5100381;28;20204;-64
2021/07/22 02:53:57;;;;;;;9.03;6.63;;;26.10;52.20;;;;;;5107587;28;20551;-65
2021/07/22 02:56:26;;;;;;;7.90;7.03;;;26.10;52.20;;;;;;5100189;28;20218;-65
2021/07/22 02:58:56;;;;;;;8.57;7.47;;;26.20;52.30;;;;;;5108269;28;20596;-64
2021/07/22 03:01:27;;;;;;;7.70;7.00;;;26.10;52.30;;;;;;5105001;28;20192;-64
2021/07/22 03:04:01;;;;;;;8.43;7.30;;;26.10;52.30;;;;;;5105742;28;20227;-64
2021/07/22 03:06:35;;;;;;;8.20;7.40;;;26.10;52.30;;;;;;5099330;28;20228;-64
2021/07/22 03:09:05;;;;;;;7.87;7.07;;;26.10;52.30;;;;;;5107490;28;20204;-64
2021/07/22 03:11:36;;;;;;;7.57;6.77;;;26.10;52.30;;;;;;5107220;28;20197;-64
2021/07/22 03:14:07;;;;;;;8.27;7.47;;;26.10;52.30;;;;;;5111125;28;20254;-64
2021/07/22 03:16:38;;;;;;;9.63;7.30;;;26.10;52.30;;;;;;5098107;28;20217;-64
2021/07/22 03:19:09;;;;;;;7.90;7.20;;;26.10;52.40;;;;;;5107058;28;20778;-64
2021/07/22 03:21:39;;;;;;;7.80;6.93;;;26.10;52.40;;;;;;5107816;28;20200;-65
2021/07/22 03:24:09;;;;;;;8.07;7.27;;;26.10;52.40;;;;;;5107873;28;20235;-65
2021/07/22 03:26:38;;;;;;;8.30;7.20;;;26.10;52.40;;;;;;5102734;28;20204;-65
2021/07/22 03:29:18;;;;;;;7.10;6.40;;;26.10;52.40;;;;;;5100638;28;20197;-64
2021/07/22 03:31:48;;;;;;;7.70;6.90;;;26.10;52.40;;;;;;5103185;28;20202;-64
2021/07/22 03:34:20;;;;;;;7.50;6.70;;;26.10;52.40;;;;;;5101628;28;20243;-65
2021/07/22 03:36:48;;;;;;;7.83;7.10;;;26.10;52.40;;;;;;5110634;28;20208;-65
2021/07/22 03:39:18;;;;;;;7.93;7.13;;;26.10;52.50;;;;;;5109395;28;20681;-65
2021/07/22 03:41:48;;;;;;;7.00;6.37;;;26.10;52.50;;;;;;5099493;28;20194;-65
2021/07/22 03:44:18;;;;;;;8.30;7.50;;;26.10;52.40;;;;;;5104364;28;20197;-65
2021/07/22 03:46:49;;;;;;;8.87;7.43;;;26.10;52.40;;;;;;5107099;28;20664;-64
2021/07/22 03:49:23;;;;;;;7.93;7.23;;;26.10;52.40;;;;;;5104730;28;20807;-64
2021/07/22 03:52:01;;;;;;;8.00;7.20;;;26.10;52.40;;;;;;5102569;28;20676;-64
2021/07/22 03:54:31;;;;;;;8.73;6.70;;;26.00;52.30;;;;;;5106778;28;20212;-64
2021/07/22 03:57:02;;;;;;;7.90;7.10;;;26.10;52.40;;;;;;5107615;28;20677;-65
2021/07/22 03:59:33;;;;;;;8.43;7.67;;;26.00;52.40;;;;;;5097023;28;20207;-66
2021/07/22 04:02:03;;;;;;;8.03;7.20;;;26.00;52.40;;;;;;5097634;28;20211;-64
2021/07/22 04:04:31;;;;;;;8.17;7.33;;;26.00;52.30;;;;;;5105782;28;20197;-64
2021/07/22 04:07:03;;;;;;;8.70;7.80;;;26.10;52.40;;;;;;5100221;28;20224;-65
2021/07/22 04:09:36;;;;;;;9.10;8.20;;;26.00;52.20;;;;;;5104621;28;20203;-66
2021/07/22 04:12:07;;;;;;;9.37;8.43;;;26.00;52.30;;;;;;5109202;28;20212;-64
2021/07/22 04:14:34;;;;;;;9.93;7.53;;;26.00;52.30;;;;;;5103496;28;20533;-64
2021/07/22 04:17:05;;;;;;;8.63;7.73;;;26.00;52.30;;;;;;5102182;28;20714;-64
2021/07/22 04:19:38;;;;;;;9.13;8.23;;;26.00;52.40;;;;;;5108828;28;20196;-64
2021/07/22 04:22:11;;;;;;;9.50;8.60;;;26.00;52.30;;;;;;5107121;28;20197;-64
2021/07/22 04:24:39;;;;;;;9.97;8.97;;;25.90;52.90;;;;;;5107084;28;20220;-64
2021/07/22 04:27:16;;;;;;;9.63;8.63;;;25.90;52.30;;;;;;5101529;28;20814;-65
2021/07/22 04:29:46;;;;;;;9.03;8.13;;;26.00;52.40;;;;;;5102259;28;20204;-65
2021/07/22 04:32:20;;;;;;;10.10;9.10;;;25.90;52.40;;;;;;5105966;28;20223;-66
2021/07/22 04:34:50;;;;;;;9.43;8.53;;;26.00;52.50;;;;;;5105488;28;20216;-65
2021/07/22 04:37:19;;;;;;;10.50;9.00;;;25.90;52.40;;;;;;5100179;28;20539;-65
2021/07/22 04:39:49;;;;;;;10.70;9.60;;;25.90;52.50;;;;;;5104144;28;20199;-64
2021/07/22 04:42:21;;;;;;;13.30;8.77;;;25.90;52.60;;;;;;5099852;28;20201;-64
2021/07/22 04:44:52;;;;;;;10.33;8.90;;;25.90;52.60;;;;;;5108374;28;20239;-64
2021/07/22 04:47:25;;;;;;;9.80;8.80;;;25.90;52.70;;;;;;5101518;28;20208;-65
2021/07/22 04:49:53;;;;;;;11.63;9.63;;;25.90;52.70;;;;;;5096448;28;20207;-65
2021/07/22 04:52:24;;;;;;;9.80;8.87;;;25.90;52.70;;;;;;5098648;28;20240;-65
2021/07/22 04:54:54;;;;;;;9.57;8.43;;;25.90;52.70;;;;;;5108328;28;20196;-65
2021/07/22 04:57:22;;;;;;;10.53;9.53;;;25.80;52.60;;;;;;5102639;28;21030;-65
2021/07/22 04:59:59;;;;;;;9.90;8.97;;;25.90;52.80;;;;;;5103560;28;20215;-65
2021/07/22 05:02:29;;;;;;;10.13;9.03;;;25.80;53.20;;;;;;5100194;28;20631;-66
2021/07/22 05:05:11;;;;;;;9.93;8.90;;;25.80;52.60;;;;;;5101798;28;20211;-66
2021/07/22 05:07:44;;;;;;;10.13;9.23;;;25.80;52.70;;;;;;5102842;28;20217;-65
2021/07/22 05:10:16;;;;;;;10.43;9.30;;;25.80;52.70;;;;;;5101499;28;20623;-66
2021/07/22 05:12:56;;;;;;;9.90;9.00;;;25.90;53.00;;;;;;5104226;28;20187;-66
2021/07/22 05:15:27;;;;;;;11.63;8.60;;;25.90;53.10;;;;;;5100669;27;20631;-64
2021/07/22 05:17:57;;;;;;;10.10;8.63;;;25.90;53.00;;;;;;5099986;28;20241;-65
2021/07/22 05:20:28;;;;;;;12.20;9.97;;;25.90;52.80;;;;;;5103682;27;20193;-65
2021/07/22 05:23:01;;;;;;;12.43;9.90;;;25.90;52.90;;;;;;5095523;28;20233;-64
2021/07/22 05:25:32;;;;;;;11.13;10.03;;;25.90;52.70;;;;;;5099246;28;20298;-64
2021/07/22 05:28:04;;;;;;;11.37;10.17;;;26.00;52.70;;;;;;5110583;28;20595;-65
2021/07/22 05:30:35;;;;;;;10.87;9.87;;;26.00;52.80;;;;;;5102732;28;20663;-66
2021/07/22 05:33:07;;;;;;;11.47;9.30;;;26.00;52.70;;;;;;5100265;28;20216;-63
2021/07/22 05:35:38;;;;;;;14.47;10.60;;;26.00;52.80;;;;;;5097342;28;20714;-65
2021/07/22 05:38:05;;;;;;;11.60;10.40;;;26.10;52.60;;;;;;5097365;28;20205;-65
2021/07/22 05:40:35;;;;;;;11.73;10.43;;;26.10;52.50;;;;;;5102133;28;20613;-66
2021/07/22 05:43:07;;;;;;;12.17;10.87;;;26.10;52.50;;;;;;5107134;28;20787;-65
2021/07/22 05:45:37;;;;;;;12.53;11.13;;;26.10;52.60;;;;;;5094607;28;20204;-65
2021/07/22 05:48:07;;;;;;;12.60;11.30;;;26.20;53.50;;;;;;5100042;28;20216;-65
2021/07/22 05:50:37;;;;;;;12.57;11.07;;;26.20;53.00;;;;;;5104674;28;20917;-65
2021/07/22 05:53:08;;;;;;;13.43;11.70;;;26.20;53.30;;;;;;5105200;28;20222;-65
2021/07/22 05:55:39;;;;;;;14.93;11.07;;;26.30;52.70;;;;;;5101611;28;20220;-64
2021/07/22 05:58:11;;;;;;;12.57;11.27;;;26.30;52.60;;;;;;5095572;28;20196;-65
2021/07/22 06:00:42;;;;;;;11.70;10.50;;;26.30;52.50;;;;;;5096629;28;20204;-65
2021/07/22 06:03:14;;;;;;;14.07;11.40;;;26.30;52.60;;;;;;5096010;28;20382;-65
2021/07/22 06:05:45;;;;;;;13.13;11.73;;;26.40;52.50;;;;;;5097445;28;20197;-65
2021/07/22 06:08:25;;;;;;;12.67;10.63;;;26.40;52.50;;;;;;5094342;28;20228;-65
2021/07/22 06:11:00;;;;;;;12.40;11.20;;;26.40;52.50;;;;;;5093030;28;20197;-64
2021/07/22 06:13:30;;;;;;;11.60;10.40;;;26.50;52.40;;;;;;5099052;28;20205;-63
2021/07/22 06:16:01;;;;;;;11.40;10.20;;;26.50;52.60;;;;;;5098133;28;20235;-62
2021/07/22 06:18:33;;;;;;;12.80;10.90;;;26.50;52.30;;;;;;5100115;28;20208;-63
2021/07/22 06:21:01;;;;;;;11.77;10.10;;;26.50;52.40;;;;;;5092492;28;20277;-64
2021/07/22 06:23:31;;;;;;;11.07;9.90;;;26.60;52.40;;;;;;5096978;28;20244;-64
2021/07/22 06:26:03;;;;;;;13.13;10.57;;;26.60;52.20;;;;;;5101729;28;20214;-65
2021/07/22 06:28:39;;;;;;;12.53;10.20;;;26.60;52.40;;;;;;5096574;28;20207;-64
2021/07/22 06:31:09;;;;;;;14.40;11.27;;;26.60;52.00;;;;;;5099690;28;20216;-65
2021/07/22 06:33:42;;;;;;;12.83;11.47;;;26.60;52.00;;;;;;5095749;28;20207;-65
2021/07/22 06:36:10;;;;;;;14.23;12.60;;;26.60;52.20;;;;;;5093275;28;20222;-65
2021/07/22 06:38:41;;;;;;;12.70;11.40;;;26.60;52.40;;;;;;5097516;28;20201;-65
2021/07/22 06:41:11;;;;;;;13.17;11.87;;;26.60;52.60;;;;;;5097178;28;20201;-64
2021/07/22 06:43:40;;;;;;;19.87;13.43;;;26.50;52.80;;;;;;5106341;28;20907;-64
2021/07/22 06:46:10;;;;;;;15.67;13.90;;;26.60;53.30;;;;;;5103250;28;20807;-65
2021/07/22 06:48:54;;;;;;;15.03;13.23;;;26.40;53.40;;;;;;5101137;28;20188;-65
2021/07/22 06:51:37;;;;;;;16.77;12.90;;;26.40;53.50;;;;;;5104196;28;20304;-65
2021/07/22 06:54:10;;;;;;;16.70;12.33;;;26.40;53.70;;;;;;5108070;28;20207;-66
2021/07/22 06:56:40;;;;;;;14.87;12.27;;;26.40;53.70;;;;;;5104974;28;20315;-65
2021/07/22 06:59:12;;;;;;;14.97;12.30;;;26.30;53.60;;;;;;5110954;28;20200;-65
2021/07/22 07:01:40;;;;;;;14.77;12.57;;;26.30;53.80;;;;;;5106415;28;20197;-66
2021/07/22 07:04:10;;;;;;;17.07;11.97;;;26.30;53.80;;;;;;5101966;28;20193;-65
2021/07/22 07:06:40;;;;;;;11.70;10.47;;;26.30;54.00;;;;;;5102674;28;20827;-66
2021/07/22 07:09:09;;;;;;;13.57;11.60;;;26.30;53.90;;;;;;5110367;28;20223;-65
2021/07/22 07:11:39;;;;;;;12.20;10.80;;;26.30;53.90;;;;;;5105288;28;20662;-66
2021/07/22 07:14:10;;;;;;;13.17;11.23;;;26.30;53.90;;;;;;5098370;28;20676;-65
2021/07/22 07:16:42;;;;;;;12.77;10.97;;;26.40;54.10;;;;;;5106093;28;20212;-64
2021/07/22 07:19:13;;;;;;;17.00;13.80;;;26.40;54.20;;;;;;5100653;28;20563;-65
2021/07/22 07:21:42;;;;;;;14.70;13.10;;;26.40;54.30;;;;;;5107817;28;20195;-63
2021/07/22 07:24:13;;;;;;;14.13;12.63;;;26.30;54.70;;;;;;5105935;28;20225;-65
2021/07/22 07:26:46;;;;;;;12.37;11.07;;;26.40;56.00;;;;;;5103927;28;20220;-64
2021/07/22 07:29:20;;;;;;;15.40;11.97;;;26.30;56.90;;;;;;5110193;28;20232;-67
2021/07/22 07:31:50;;;;;;;13.57;12.17;;;26.30;57.20;;;;;;5102568;28;20209;-64
2021/07/22 07:34:24;;;;;;;19.93;14.20;;;26.30;57.10;;;;;;5099321;28;20196;-68
2021/07/22 07:36:57;;;;;;;14.93;13.43;;;26.30;56.30;;;;;;5106140;28;20212;-69
2021/07/22 07:39:25;;;;;;;16.20;14.17;;;26.40;56.40;;;;;;5101994;28;20201;-68
2021/07/22 07:41:56;;;;;;;14.70;13.17;;;26.40;56.60;;;;;;5102638;28;20201;-68
2021/07/22 07:44:26;;;;;;;14.20;10.90;;;26.40;56.70;;;;;;5099300;28;20284;-69
2021/07/22 07:46:58;;;;;;;17.23;12.73;;;26.40;58.70;;;;;;5104044;28;20265;-69
2021/07/22 07:49:29;;;;;;;14.30;12.80;;;26.40;57.60;;;;;;5108038;28;20193;-69
2021/07/22 07:51:59;;;;;;;18.17;13.43;;;26.40;58.50;;;;;;5107167;28;20200;-68
2021/07/22 07:54:36;;;;;;;15.43;13.83;;;26.40;57.20;;;;;;5090610;28;20315;-69
2021/07/22 07:57:09;;;;;;;15.40;13.80;;;26.40;56.10;;;;;;5108150;27;20528;-66
2021/07/22 07:59:38;;;;;;;14.00;12.50;;;26.40;55.70;;;;;;5101707;28;20545;-69
2021/07/22 08:02:08;;;;;;;14.33;12.17;;;26.40;56.00;;;;;;5099663;28;20205;-68
2021/07/22 08:04:39;;;;;;;12.97;11.07;;;26.40;57.80;;;;;;5100851;28;20502;-67
2021/07/22 08:07:12;;;;;;;13.53;11.67;;;26.40;57.00;;;;;;5112425;28;20295;-69
2021/07/22 08:09:47;;;;;;;12.50;11.10;;;26.50;57.40;;;;;;5107513;28;20201;-67
2021/07/22 08:12:18;;;;;;;12.80;11.13;;;26.50;58.50;;;;;;5107550;28;20192;-66
2021/07/22 08:14:49;;;;;;;11.97;10.73;;;26.50;58.20;;;;;;5107021;28;20222;-66
2021/07/22 08:17:26;;;;;;;13.70;12.40;;;26.50;58.10;;;;;;5106966;28;20228;-67
2021/07/22 08:20:00;;;;;;;15.77;12.10;;;26.50;57.10;;;;;;5104436;28;20188;-68
2021/07/22 08:22:30;;;;;;;12.93;10.73;;;26.60;58.20;;;;;;5103408;28;20263;-67
2021/07/22 08:25:02;;;;;;;12.97;10.70;;;26.50;57.90;;;;;;5105818;28;20533;-67
2021/07/22 08:27:39;;;;;;;14.00;11.20;;;26.60;58.00;;;;;;5099824;28;20305;-66
2021/07/22 08:30:16;;;;;;;12.63;11.17;;;26.60;57.90;;;;;;5101838;28;20933;-67
2021/07/22 08:32:47;;;;;;;16.83;12.50;;;26.60;58.00;;;;;;5103817;28;20204;-66
2021/07/22 08:35:17;;;;;;;12.17;10.87;;;26.60;56.90;;;;;;5106839;28;20204;-67
2021/07/22 08:37:48;;;;;;;11.80;10.67;;;26.60;58.00;;;;;;5108223;28;20222;-69
2021/07/22 08:40:18;;;;;;;13.30;11.67;;;26.60;57.90;;;;;;5108764;28;20193;-70
2021/07/22 08:42:51;;;;;;;14.07;10.90;;;26.60;57.70;;;;;;5103622;28;20660;-69
2021/07/22 08:45:20;;;;;;;11.80;10.67;;;26.60;57.80;;;;;;5107491;28;20534;-67
2021/07/22 08:47:51;;;;;;;12.90;11.10;;;26.60;57.70;;;;;;5108091;28;20247;-68
2021/07/22 08:50:21;;;;;;;12.60;11.23;;;26.60;57.70;;;;;;5097401;28;20199;-66
2021/07/22 08:52:52;;;;;;;13.23;11.80;;;26.70;57.90;;;;;;5102607;28;20227;-68
2021/07/22 08:55:24;;;;;;;14.77;12.07;;;26.60;57.40;;;;;;5105010;28;20218;-67
2021/07/22 08:58:20;;;;;;;13.00;11.13;;;26.70;57.10;;;;;;5107767;28;20228;-68
2021/07/22 09:00:50;;;;;;;12.07;10.87;;;26.70;57.60;;;;;;5106237;28;20212;-68
2021/07/22 09:03:20;;;;;;;13.17;11.87;;;26.70;57.50;;;;;;5107764;28;20290;-69
2021/07/22 09:05:56;;;;;;;14.53;12.37;;;26.70;56.50;;;;;;5103698;28;20208;-67
2021/07/22 09:08:28;;;;;;;13.03;11.47;;;26.70;55.50;;;;;;5103481;28;20675;-66
2021/07/22 09:11:10;;;;;;;11.93;10.67;;;26.70;57.00;;;;;;5094920;28;20251;-66
2021/07/22 09:13:38;;;;;;;11.50;10.30;;;26.80;57.40;;;;;;5108643;28;20196;-66
2021/07/22 09:16:09;;;;;;;11.60;10.40;;;26.70;57.10;;;;;;5103971;28;20215;-68
2021/07/22 09:19:08;;;;;;;13.33;11.93;;;26.80;57.30;;;;;;5102817;28;20197;-65
2021/07/22 09:21:42;;;;;;;13.27;11.57;;;26.80;55.20;;;;;;5106826;28;20253;-65
2021/07/22 09:24:11;;;;;;;12.47;10.90;;;26.80;54.20;;;;;;5107115;28;20236;-68
2021/07/22 09:26:46;;;;;;;13.13;10.83;;;26.80;55.10;;;;;;5107266;28;20207;-66
2021/07/22 09:29:17;;;;;;;15.70;11.47;;;26.80;55.20;;;;;;5102222;28;20188;-66
2021/07/22 09:31:48;;;;;;;12.77;9.80;;;26.80;55.20;;;;;;5097932;28;20204;-66
2021/07/22 09:34:26;;;;;;;11.83;9.83;;;26.80;57.00;;;;;;5108786;28;20659;-68
2021/07/22 09:37:06;;;;;;;11.37;9.80;;;26.90;55.60;;;;;;5105670;28;20220;-66
2021/07/22 09:39:41;;;;;;;12.80;10.33;;;26.90;56.30;;;;;;5093626;28;20512;-65
2021/07/22 09:42:17;;;;;;;12.83;9.60;;;26.90;55.30;;;;;;5103365;28;20203;-67
2021/07/22 09:44:51;;;;;;;14.90;10.37;;;26.90;55.60;;;;;;5108536;28;20203;-69
2021/07/22 09:47:30;;;;;;;12.90;9.43;;;26.90;53.60;;;;;;5098626;28;20809;-67
2021/07/22 09:50:17;;;;;;;10.90;9.67;;;26.90;54.30;;;;;;5104568;28;20219;-68
2021/07/22 09:53:08;;;;;;;14.87;9.17;;;26.90;53.80;;;;;;5105005;28;20192;-65
2021/07/22 09:55:41;;;;;;;8.60;7.63;;;26.90;56.00;;;;;;5099666;28;20338;-64
2021/07/22 09:58:15;;;;;;;7.63;6.83;;;26.80;51.20;;;;;;5106312;28;20536;-65
2021/07/22 10:00:59;;;;;;;7.50;6.63;;;26.60;48.50;;;;;;5105888;28;20906;-65
2021/07/22 10:03:31;;;;;;;8.63;7.20;;;26.40;48.70;;;;;;5104336;28;20202;-65
2021/07/22 10:06:08;;;;;;;7.80;6.90;;;26.20;49.60;;;;;;5099042;28;20839;-64
2021/07/22 10:08:40;;;;;;;7.03;6.33;;;26.10;50.10;;;;;;5096615;28;20613;-65
2021/07/22 10:11:23;;;;;;;7.60;6.80;;;26.00;50.40;;;;;;5096648;28;20197;-65
2021/07/22 10:14:08;;;;;;;8.67;6.37;;;25.90;50.80;;;;;;5104480;28;20192;-65
2021/07/22 10:16:39;;;;;;;8.23;6.43;;;25.80;51.10;;;;;;5100431;28;20633;-65
2021/07/22 10:19:15;;;;;;;7.30;6.60;;;25.80;51.00;;;;;;5103960;28;20192;-65
2021/07/22 10:21:46;;;;;;;6.37;5.77;;;25.70;51.10;;;;;;5105946;28;20216;-66
2021/07/22 10:24:16;;;;;;;6.60;5.97;;;25.70;51.10;;;;;;5094703;28;20228;-67
2021/07/22 10:26:46;;;;;;;6.20;5.60;;;25.60;51.00;;;;;;5110428;28;20192;-65
2021/07/22 10:29:17;;;;;;;6.27;5.67;;;25.50;51.20;;;;;;5112207;28;20204;-65
2021/07/22 10:31:57;;;;;;;6.27;5.67;;;25.40;51.10;;;;;;5112155;28;20196;-66
2021/07/22 10:34:49;;;;;;;6.90;6.20;;;25.40;51.20;;;;;;5105599;28;20200;-66
2021/07/22 10:37:19;;;;;;;6.30;5.70;;;25.30;51.60;;;;;;5101986;28;20229;-65
2021/07/22 10:40:10;;;;;;;6.13;5.53;;;25.20;51.60;;;;;;5106558;28;20201;-65
2021/07/22 10:42:50;;;;;;;6.77;5.83;;;25.20;51.60;;;;;;5089539;28;20192;-65
2021/07/22 10:45:28;;;;;;;6.30;5.70;;;25.20;51.70;;;;;;5108231;28;20282;-65
2021/07/22 10:48:10;;;;;;;5.80;5.30;;;25.20;51.80;;;;;;5111961;28;20228;-65
2021/07/22 10:50:57;;;;;;;5.90;5.30;;;25.10;51.80;;;;;;5112719;28;20220;-65
2021/07/22 10:53:47;;;;;;;6.10;5.50;;;25.00;51.80;;;;;;5105418;28;20200;-65
2021/07/22 10:56:41;;;;;;;5.97;5.37;;;25.00;51.80;;;;;;5108855;28;20238;-65
2021/07/22 10:59:11;;;;;;;6.43;5.37;;;25.00;51.90;;;;;;5098723;28;20226;-66
2021/07/22 11:01:46;;;;;;;6.10;5.53;;;25.00;51.90;;;;;;5096001;28;20205;-63
2021/07/22 11:04:39;;;;;;;6.13;5.53;;;24.90;51.90;;;;;;5095291;28;20286;-63
2021/07/22 11:07:14;;;;;;;5.83;5.33;;;24.90;52.00;;;;;;5098055;28;20243;-65
2021/07/22 11:09:53;;;;;;;5.77;5.27;;;24.80;51.90;;;;;;5104878;28;20204;-66
2021/07/22 11:12:49;;;;;;;6.07;5.47;;;24.80;52.10;;;;;;5104869;28;20265;-65
2021/07/22 11:15:58;;;;;;;6.20;5.70;;;24.80;52.20;;;;;;5100377;28;20195;-65
2021/07/22 11:18:47;;;;;;;6.20;5.60;;;24.70;52.40;;;;;;5101512;28;20731;-65
2021/07/22 11:21:34;;;;;;;5.90;5.33;;;24.70;52.30;;;;;;5096909;28;20196;-65
2021/07/22 11:24:22;;;;;;;8.33;4.70;;;24.70;52.40;;;;;;5100151;28;20317;-70
2021/07/22 11:26:55;;;;;;;5.73;5.17;;;24.70;52.20;;;;;;5090725;28;20272;-65
2021/07/22 11:29:30;;;;;;;6.00;5.40;;;24.70;52.80;;;;;;5104808;28;20192;-65
2021/07/22 11:32:02;;;;;;;9.37;5.33;;;24.70;52.60;;;;;;5105373;28;20202;-66
2021/07/22 11:34:36;;;;;;;5.93;5.33;;;24.70;53.00;;;;;;5099124;28;20230;-66
2021/07/22 11:37:07;;;;;;;6.00;5.40;;;24.80;53.10;;;;;;5104754;28;20223;-66
2021/07/22 11:39:43;;;;;;;5.70;5.07;;;24.80;52.90;;;;;;5104480;27;20207;-66
2021/07/22 11:42:16;;;;;;;7.40;4.77;;;24.90;52.90;;;;;;5099392;28;20208;-68
2021/07/22 11:45:08;;;;;;;6.50;5.60;;;24.90;52.80;;;;;;5108149;28;20192;-68
2021/07/22 11:47:41;;;;;;;5.33;4.83;;;24.90;52.70;;;;;;5097991;28;20201;-65
2021/07/22 11:50:11;;;;;;;6.77;5.20;;;24.90;52.50;;;;;;5093549;28;20713;-65
2021/07/22 11:52:43;;;;;;;5.80;5.00;;;24.90;52.30;;;;;;5101438;28;20223;-64
2021/07/22 11:55:13;;;;;;;5.57;5.03;;;25.00;52.30;;;;;;5106891;28;20554;-65
2021/07/22 11:57:46;;;;;;;6.40;5.10;;;25.00;52.30;;;;;;5106003;28;20220;-65
2021/07/22 12:00:25;;;;;;;5.13;4.67;;;25.00;52.30;;;;;;5098557;28;20483;-64
2021/07/22 12:03:08;;;;;;;5.40;4.90;;;25.00;52.00;;;;;;5103511;28;20208;-66
2021/07/22 12:05:37;;;;;;;5.30;4.87;;;25.00;51.90;;;;;;5097964;28;20215;-66
2021/07/22 12:08:17;;;;;;;5.77;5.13;;;25.00;51.80;;;;;;5081697;28;20261;-66
2021/07/22 12:10:46;;;;;;;5.33;4.83;;;24.90;51.60;;;;;;5102787;28;20540;-66
2021/07/22 12:13:20;;;;;;;5.60;5.10;;;24.90;52.30;;;;;;5094060;28;20266;-65
2021/07/22 12:15:52;;;;;;;5.13;4.63;;;24.90;51.70;;;;;;5105587;28;20208;-66
2021/07/22 12:18:24;;;;;;;7.27;4.97;;;24.90;51.50;;;;;;5100124;28;20273;-65
2021/07/22 12:20:55;;;;;;;5.40;4.80;;;24.90;51.70;;;;;;5101931;28;20207;-66
2021/07/22 12:23:35;;;;;;;5.33;4.83;;;24.90;51.80;;;;;;5106432;28;20239;-66
2021/07/22 12:26:05;;;;;;;6.83;5.00;;;24.90;52.00;;;;;;5085923;28;20204;-66
2021/07/22 12:28:43;;;;;;;5.40;4.90;;;24.90;51.80;;;;;;5104280;28;20201;-65
2021/07/22 12:31:16;;;;;;;5.27;4.77;;;24.80;51.80;;;;;;5096324;28;20228;-64
2021/07/22 12:34:02;;;;;;;6.20;5.00;;;24.80;51.90;;;;;;5102043;28;20204;-63
2021/07/22 12:36:36;;;;;;;4.93;4.50;;;24.80;51.90;;;;;;5099987;28;20196;-63
2021/07/22 12:39:19;;;;;;;5.87;5.33;;;24.80;52.00;;;;;;5106249;28;20231;-63
2021/07/22 12:41:50;;;;;;;5.13;4.73;;;24.70;52.00;;;;;;5096432;28;20275;-65
2021/07/22 12:44:49;;;;;;;4.87;4.40;;;24.80;52.10;;;;;;5098369;28;20192;-69
2021/07/22 12:47:33;;;;;;;8.50;5.60;;;24.80;52.10;;;;;;5101811;28;20204;-64
2021/07/22 12:50:30;;;;;;;9.37;5.17;;;24.70;52.20;;;;;;5100404;27;20564;-64
2021/07/22 12:53:05;;;;;;;7.40;4.60;;;24.70;52.30;;;;;;5101111;28;20214;-64
2021/07/22 12:55:40;;;;;;;5.57;5.07;;;24.70;52.40;;;;;;5078847;28;20225;-64
2021/07/22 12:58:34;;;;;;;8.80;5.13;;;24.70;52.40;;;;;;5091975;28;20236;-64
2021/07/22 13:01:11;;;;;;;5.30;4.43;;;24.70;52.40;;;;;;5087099;28;20216;-66
2021/07/22 13:03:55;;;;;;;6.97;5.57;;;24.70;52.50;;;;;;5086442;28;20752;-65
2021/07/22 13:06:25;;;;;;;5.77;4.77;;;24.70;52.50;;;;;;5079031;28;20636;-66
2021/07/22 13:08:56;;;;;;;5.70;5.20;;;24.70;52.40;;;;;;5089746;28;20201;-66
2021/07/22 13:11:30;;;;;;;6.17;5.00;;;24.70;52.40;;;;;;5098197;28;20253;-64
2021/07/22 13:14:02;;;;;;;6.30;5.50;;;24.60;52.40;;;;;;5089147;28;20719;-63